Terminal Aerodrome Forecast
Issued by NWS

Home | Current Version | Previous Version | Text Only | Print | Product List | Glossary On
Versions: 1 2 3 4 5 6 7 8 9 10 11 12 13 14 15 16 17 18 19 20 21 22 23 24 25 26 27 28 29 30 31 32 33 34 35 36 37
000
FTUS43 KSGF 182000 AAA
TAFBBG
TAF AMD
KBBG 182042Z 1821/1918 10008KT P6SM BKN016 OVC040
      TEMPO 1821/1824 SCT016 OVC040
     FM190000 11006KT P6SM SCT016 BKN040
      TEMPO 1900/1904 BKN016
     FM190400 12003KT 5SM BR SCT010
     FM190700 12003KT 1SM BR OVC004
     FM191500 13005KT P6SM SCT006 OVC015=

USA.gov is the U.S. government's official web portal to all federal, state and local government web resources and services.